Terminal Aerodrome Forecast
Issued by NWS

Home | Current Version | Previous Version | Text Only | Print | Product List | Glossary On
Versions: 1 2 3 4 5 6 7 8 9 10 11 12 13 14 15 16 17
000
FTUS43 KDTX 291720
TAFMBS
TAF
KMBS 291720Z 2918/3018 05012KT P6SM SCT020 BKN040 BKN100
      TEMPO 2919/2923 -SHRA BKN035
     FM300000 04006KT P6SM SCT050 BKN100=

USA.gov is the U.S. government's official web portal to all federal, state and local government web resources and services.